createdAt,value
2018-06-19T00:02:26.382Z,93.90
2018-06-19T00:07:31.446Z,93.50
2018-06-19T00:12:36.260Z,94.50
2018-06-19T00:17:41.334Z,94.30
2018-06-19T00:22:46.179Z,94.40
2018-06-19T00:27:50.972Z,94.70
2018-06-19T00:32:56.055Z,95.10
2018-06-19T00:38:00.940Z,95.10
2018-06-19T00:43:05.808Z,95.90
2018-06-19T00:48:10.995Z,96.10
2018-06-19T00:53:16.272Z,96.30
2018-06-19T00:58:20.955Z,96.50
2018-06-19T01:03:25.749Z,96.50
2018-06-19T01:08:30.674Z,96.60
2018-06-19T01:13:35.713Z,97.40
2018-06-19T01:18:41.452Z,98.80
2018-06-19T01:23:46.209Z,98.90
2018-06-19T01:28:51.667Z,99.00
2018-06-19T01:33:56.542Z,98.90
2018-06-19T01:39:01.460Z,98.40
2018-06-19T01:44:06.281Z,98.20
2018-06-19T01:49:11.033Z,98.70
2018-06-19T01:54:15.695Z,99.50
2018-06-19T01:59:20.408Z,99.60
2018-06-19T02:04:25.028Z,99.60
2018-06-19T02:09:29.898Z,99.60
2018-06-19T02:14:34.756Z,99.60
2018-06-19T02:19:39.608Z,99.60
2018-06-19T02:24:44.417Z,99.60
2018-06-19T02:29:49.309Z,99.60
2018-06-19T02:34:54.133Z,99.60
2018-06-19T02:39:59.044Z,99.60
2018-06-19T02:45:04.515Z,99.60
2018-06-19T02:55:13.602Z,99.60
2018-06-19T03:00:18.626Z,99.60
2018-06-19T03:05:24.213Z,99.60
2018-06-19T03:10:29.136Z,99.60
2018-06-19T03:15:34.325Z,99.60
2018-06-19T03:20:39.545Z,99.60
2018-06-19T03:25:44.516Z,99.60
2018-06-19T03:30:49.129Z,99.60
2018-06-19T03:35:54.133Z,99.60
2018-06-19T03:40:59.008Z,99.60
2018-06-19T03:46:03.901Z,99.60
2018-06-19T03:51:08.684Z,99.60
2018-06-19T03:56:13.602Z,99.60
2018-06-19T04:01:18.861Z,99.60
2018-06-19T04:06:25.766Z,99.60
2018-06-19T04:11:30.781Z,99.60
2018-06-19T04:16:35.484Z,99.60
2018-06-19T04:21:41.169Z,99.60
2018-06-19T04:26:45.887Z,99.60
2018-06-19T04:31:50.672Z,99.60
2018-06-19T04:36:56.296Z,99.60
2018-06-19T04:42:01.306Z,99.60
2018-06-19T04:47:06.660Z,99.60
2018-06-19T04:52:11.976Z,99.60
2018-06-19T04:57:16.669Z,99.60
2018-06-19T05:02:21.549Z,99.60
2018-06-19T05:07:26.360Z,99.60
2018-06-19T05:12:31.668Z,99.60
2018-06-19T05:17:36.393Z,99.60
2018-06-19T05:22:41.260Z,99.60
2018-06-19T05:27:46.260Z,99.60
2018-06-19T05:32:51.353Z,99.30
2018-06-19T05:37:56.100Z,98.90
2018-06-19T05:43:01.128Z,99.00
2018-06-19T05:48:06.806Z,99.00
2018-06-19T05:53:11.805Z,99.00
2018-06-19T05:58:16.615Z,97.60
2018-06-19T06:03:21.307Z,96.80
2018-06-19T06:08:26.073Z,94.60
2018-06-19T06:13:30.985Z,94.20
2018-06-19T06:18:36.166Z,94.40
2018-06-19T06:23:40.947Z,93.50
2018-06-19T06:28:46.011Z,94.10
2018-06-19T06:33:51.310Z,93.40
2018-06-19T06:38:56.039Z,93.40
2018-06-19T06:44:01.503Z,93.70
2018-06-19T06:49:06.448Z,93.40
2018-06-19T06:54:11.156Z,92.60
2018-06-19T06:59:18.015Z,92.10
2018-06-19T07:04:22.928Z,91.70
2018-06-19T07:09:27.982Z,92.60
2018-06-19T07:14:32.930Z,92.70
2018-06-19T07:19:38.005Z,92.40
2018-06-19T07:24:42.910Z,91.30
2018-06-19T07:29:50.558Z,91.60
2018-06-19T07:34:56.889Z,90.20
2018-06-19T07:45:05.921Z,89.70
2018-06-19T07:50:10.583Z,88.80
2018-06-19T07:55:15.440Z,88.40
2018-06-19T08:00:20.215Z,87.60
2018-06-19T08:05:24.951Z,88.10
2018-06-19T08:10:30.306Z,88.50
2018-06-19T08:15:44.594Z,88.20
2018-06-19T08:20:51.526Z,88.80
2018-06-19T08:25:56.280Z,87.00
2018-06-19T08:31:10.162Z,87.00
2018-06-19T08:36:16.579Z,84.80
2018-06-19T08:41:21.453Z,84.80
2018-06-19T08:51:39.245Z,83.90
2018-06-19T08:56:46.321Z,82.50
2018-06-19T09:01:50.944Z,81.80
2018-06-19T09:06:56.016Z,82.60
2018-06-19T09:17:04.966Z,80.50
2018-06-19T09:22:09.810Z,81.00
2018-06-19T09:27:14.479Z,79.80
2018-06-19T09:32:19.176Z,80.70
2018-06-19T09:37:24.068Z,80.60
2018-06-19T09:47:33.773Z,81.00
2018-06-19T09:52:38.973Z,81.30
2018-06-19T09:57:43.935Z,80.80
2018-06-19T10:07:52.924Z,79.10
2018-06-19T10:12:57.946Z,80.60
2018-06-19T10:18:02.890Z,80.50
2018-06-19T10:23:07.653Z,78.90
2018-06-19T10:28:12.689Z,77.70
2018-06-19T10:33:18.705Z,75.40
2018-06-19T10:38:26.395Z,77.10
2018-06-19T10:43:31.709Z,76.70
2018-06-19T10:48:36.538Z,74.30
2018-06-19T10:53:41.377Z,74.10
2018-06-19T10:58:46.852Z,74.50
2018-06-19T11:03:54.114Z,75.40
2018-06-19T11:08:59.541Z,76.00
2018-06-19T11:14:04.497Z,76.10
2018-06-19T11:19:10.529Z,75.40
2018-06-19T11:24:15.609Z,75.10
2018-06-19T11:29:20.502Z,75.60
2018-06-19T11:34:26.396Z,73.70
2018-06-19T11:39:31.149Z,74.70
2018-06-19T11:44:36.163Z,73.90
2018-06-19T11:49:40.988Z,73.20
2018-06-19T11:54:45.978Z,74.50
2018-06-19T11:59:51.016Z,71.60
2018-06-19T12:04:55.747Z,69.70
2018-06-19T12:10:01.744Z,69.90
2018-06-19T12:15:06.565Z,66.60
2018-06-19T12:20:11.285Z,63.90
2018-06-19T12:25:18.699Z,62.80
2018-06-19T12:30:23.567Z,63.40
2018-06-19T12:35:28.477Z,63.00
2018-06-19T12:40:33.130Z,61.40
2018-06-19T12:45:38.004Z,60.30
2018-06-19T12:52:01.508Z,60.50
2018-06-19T12:57:06.727Z,59.60
2018-06-19T13:02:11.562Z,59.60
2018-06-19T13:07:18.148Z,58.40
2018-06-19T13:12:35.054Z,57.80
2018-06-19T13:17:52.250Z,58.40
2018-06-19T13:22:57.326Z,57.30
2018-06-19T13:28:02.515Z,57.80
2018-06-19T13:33:07.523Z,58.10
2018-06-19T13:38:12.583Z,59.00
2018-06-19T13:43:33.265Z,56.90
2018-06-19T13:48:46.478Z,57.40
2018-06-19T13:53:52.964Z,57.90
2018-06-19T13:59:06.225Z,56.90
2018-06-19T14:04:17.059Z,57.50
2018-06-19T14:10:34.683Z,56.30
2018-06-19T14:15:43.486Z,56.30
2018-06-19T14:20:49.319Z,55.50
2018-06-19T14:25:54.278Z,55.40
2018-06-19T14:30:59.234Z,54.40
2018-06-19T14:36:03.852Z,55.50
2018-06-19T14:41:08.485Z,55.20
2018-06-19T14:46:13.214Z,54.90
2018-06-19T14:51:20.229Z,55.20
2018-06-19T14:56:25.643Z,53.90
2018-06-19T15:01:30.519Z,53.60
2018-06-19T15:06:35.812Z,55.10
2018-06-19T15:11:46.136Z,53.60
2018-06-19T15:16:51.078Z,52.60
2018-06-19T15:21:56.801Z,54.40
2018-06-19T15:27:05.215Z,55.10
2018-06-19T15:32:10.453Z,55.60
2018-06-19T15:37:15.232Z,54.20
2018-06-19T15:42:20.895Z,53.80
2018-06-19T15:47:26.109Z,54.40
2018-06-19T15:52:31.185Z,54.60
2018-06-19T15:57:36.411Z,54.20
2018-06-19T16:02:41.487Z,54.70
2018-06-19T16:07:51.362Z,53.50
2018-06-19T16:12:56.378Z,53.20
2018-06-19T16:23:08.281Z,53.30
2018-06-19T16:28:12.903Z,54.30
2018-06-19T16:33:17.683Z,53.30
2018-06-19T16:38:23.327Z,53.00
2018-06-19T16:43:28.635Z,53.00
2018-06-19T16:48:33.785Z,52.70
2018-06-19T16:53:39.128Z,51.60
2018-06-19T16:58:44.003Z,53.10
2018-06-19T17:03:48.744Z,52.40
2018-06-19T17:08:53.953Z,51.80
2018-06-19T17:13:58.744Z,52.70
2018-06-19T17:19:03.692Z,55.90
2018-06-19T17:24:08.426Z,60.30
2018-06-19T17:29:13.544Z,63.80
2018-06-19T17:34:18.317Z,66.00
2018-06-19T17:39:23.316Z,67.00
2018-06-19T17:44:28.264Z,68.10
2018-06-19T17:49:32.901Z,68.20
2018-06-19T17:54:38.183Z,68.80
2018-06-19T17:59:43.079Z,69.10
2018-06-19T18:04:47.788Z,69.50
2018-06-19T18:09:52.710Z,69.90
2018-06-19T18:14:57.714Z,70.20
2018-06-19T18:20:03.288Z,70.50
2018-06-19T18:25:08.246Z,70.70
2018-06-19T18:30:13.096Z,71.30
2018-06-19T18:35:17.883Z,72.00
2018-06-19T18:40:31.749Z,72.40
2018-06-19T18:45:37.498Z,73.10
2018-06-19T18:50:42.652Z,73.40
2018-06-19T18:55:47.492Z,73.80
2018-06-19T19:06:05.025Z,75.50
2018-06-19T19:11:27.503Z,76.10
2018-06-19T19:16:37.559Z,76.70
2018-06-19T19:21:44.699Z,77.10
2018-06-19T19:26:54.922Z,77.50
2018-06-19T19:32:00.286Z,77.60
2018-06-19T19:37:12.927Z,78.50
2018-06-19T19:42:24.709Z,79.00
2018-06-19T19:47:34.923Z,80.10
2018-06-19T19:52:39.783Z,81.10
2018-06-19T19:57:49.443Z,81.00
2018-06-19T20:02:54.877Z,81.00
2018-06-19T20:07:59.940Z,81.20
2018-06-19T20:18:09.650Z,81.70
2018-06-19T20:23:14.653Z,82.00
2018-06-19T20:28:19.464Z,82.20
2018-06-19T20:33:24.238Z,82.30
2018-06-19T20:38:29.268Z,82.40
2018-06-19T20:43:34.027Z,82.50
2018-06-19T20:48:43.053Z,82.80
2018-06-19T20:53:48.097Z,83.20
2018-06-19T20:58:53.045Z,83.30
2018-06-19T21:03:58.276Z,83.80
2018-06-19T21:09:04.079Z,84.60
2018-06-19T21:14:09.114Z,85.40
2018-06-19T21:19:19.004Z,86.60
2018-06-19T21:24:23.740Z,87.00
2018-06-19T21:29:28.904Z,86.90
2018-06-19T21:34:33.879Z,86.10
2018-06-19T21:39:38.847Z,85.80
2018-06-19T21:44:43.843Z,85.70
2018-06-19T21:49:48.704Z,85.70
2018-06-19T21:54:53.453Z,86.10
2018-06-19T21:59:58.337Z,86.40
2018-06-19T22:05:04.878Z,86.90
2018-06-19T22:15:17.145Z,87.40
2018-06-19T22:20:22.551Z,88.50
2018-06-19T22:25:27.276Z,90.60
2018-06-19T22:30:32.026Z,91.90
2018-06-19T22:35:36.782Z,92.20
2018-06-19T22:40:41.612Z,92.60
2018-06-19T22:45:46.378Z,92.80
2018-06-19T22:50:51.621Z,93.40
2018-06-19T22:55:56.450Z,93.60
2018-06-19T23:01:05.644Z,93.60
2018-06-19T23:06:13.904Z,93.20
2018-06-19T23:11:18.522Z,92.80
2018-06-19T23:16:23.394Z,93.60
2018-06-19T23:26:32.850Z,94.80
2018-06-19T23:31:38.265Z,94.70
2018-06-19T23:36:43.205Z,94.70
2018-06-19T23:41:52.662Z,95.50
2018-06-19T23:46:58.288Z,95.50
2018-06-19T23:52:03.607Z,95.30
2018-06-19T23:57:09.706Z,95.30
